Sunday, June 26, 2016
02:47 UTC
  |  Log In   |  Register Free
Airport Search:

Indiana County/Jimmy Stewart Fld/ Airport
(KIDI)

Indiana County/Jimmy Stewart Fld/ Airport Diagram
No Airport Diagram Available

FAA data valid effective May 26 2016 - Jul 21 2016 (unless otherwise noted).

 
 
 
 
 
 
 
 
 
 
 
 
 
 
Current Aviation Weather for KIDI

Weather Summary


The most recent METAR observation for IDI was updated at: 12:55 UTC
METAR for KIDI is not available. Closest METAR is for KJST
KIDI  (most recent observation was updatred at 26:02 UTC)
260235Z AUTO 18006KT 10SM CLR 22/17 A3022 RMK A01

KJST  (22.7 nm NW)   (most recent observation was updated at 26:01 UTC)
260154Z AUTO 18007KT 10SM CLR 19/14 A3023 RMK AO2 SLP226 T01940144

KLBE  (25.5 nm NE)   (most recent observation was updated at 26:02 UTC)
260235Z AUTO 00000KT 10SM CLR 23/17 A3018 RMK AO2

TAF for KIDI is not available.
KJST  (22.7 nm NW)   (most recent observation was updatred at 25:23 UTC)
252356Z 2600/2624 17005KT P6SM SCT050


KLBE  (25.5 nm NE)   (most recent observation was updatred at 25:23 UTC)
252320Z 2600/2624 VRB03KT P6SM SKC FM261500 19008KT P6SM SCT050


KDUJ  (34.1 nm SW)   (most recent observation was updatred at 25:23 UTC)
252320Z 2600/2624 VRB03KT P6SM SKC FM261500 19008KT P6SM SCT050
GlobalAir.com is loading additional information.
 Current Weather at IDI
75.0 F° (24.0 C°)

Variable winds at 5.8 mph
Pressure:
30.20 in
Humidity:
69%
Wind:
Variable at 5.8 mph
Dew Point:
64.4 F° (18.0 C°)
Visibility:
10.00 mi
IDI NOAA Radar




Find All Airport Services Find A Hotel Find A Rental Car Find A Golf Course Find A Restaurant $100 Hamburger



Airport Weather Forecast for KIDI

Translated METAR for KIDI (0235 UTC)
METAR:
KIDI 260235Z AUTO 18006KT 10SM CLR 22/17 A3022 RMK A01
Conditions at:
KIDI (Indiana County/Jimmy Stewart Fld/, PA) observed 0235 UTC 25 June 2016
Temperature:
22°C (71.6°F)
Dewpoint:
17°C (62.6°F) [RH = 73.3]
Pressure:
30.22 inches Hg (1023.4 mb)
Winds:
from the S (180 degrees) at 6.9 mph (6 knots: 3.1 m/s)
Visibility:
10 mile(s)
Ceiling:
at least 12,000 feet AGL
Clouds:
Clear below 12,000 feet AGL
Remarks:
site is un-manned

Translated TAF for KJST (John Murtha Johnstown-Cambria Co, PA) (2356 UTC)
TAF text:
KJST 252356Z 2600/2624 17005KT P6SM SCT050
Forecast period:
Sunday Jun 26 2016 00:00 UTC - Sunday Jun 26 2016 24:00 UTC
Forecast type:
FROM: standard forecast or significant change
Winds:
from the S (170 degrees) at 5.8 mph (5 knots: 2.6 m/s)
Visibility:
6 or more mile(s) (9.7+ km)
Ceiling:
at least 12,000 feet AGL
Clouds:
Scattered Clouds at 5,000 feet AGL
Weather:
no significant weather observed at this time
FBO's on the Field
FBO Company Facility Photos Services Transportation Aviation Fuel Prices: Prices include tax
Catering Weather Repair Courtesy Rental Type 100LL JetA JetA+ MOGAS 8087
 
Indiana County Jimmy Stewart Airport

Currently rated 5 by 1 person
FS:Phillips 66
Last Updated: Jun-08
Login to update fuel prices
SS:
Contact Indiana County Jimmy Stewart AirportMore FBO Information
 
Add another FBO Facility Photos Catering Weather Repair Courtesy Rental Type 100LL JetA JetA+ MOGAS 8087
Services Transportation Aviation Fuel Prices: Prices include tax


model-print
model-print
model-print
model-print